sensor_id;sensor_type;location;lat;lon;timestamp;temperature;humidity
59975;DHT22;45827;-36.632;-64.318;2022-07-04T00:01:08;16.70;42.50
59975;DHT22;45827;-36.632;-64.318;2022-07-04T00:03:35;16.70;42.50
59975;DHT22;45827;-36.632;-64.318;2022-07-04T00:06:08;16.70;42.50
59975;DHT22;45827;-36.632;-64.318;2022-07-04T00:08:38;16.70;42.50
59975;DHT22;45827;-36.632;-64.318;2022-07-04T00:11:05;16.70;42.50
59975;DHT22;45827;-36.632;-64.318;2022-07-04T00:13:32;16.60;42.40
59975;DHT22;45827;-36.632;-64.318;2022-07-04T00:15:59;16.70;42.40
59975;DHT22;45827;-36.632;-64.318;2022-07-04T00:18:26;16.60;42.30
59975;DHT22;45827;-36.632;-64.318;2022-07-04T00:20:53;16.70;42.40
59975;DHT22;45827;-36.632;-64.318;2022-07-04T00:23:20;16.60;42.40
59975;DHT22;45827;-36.632;-64.318;2022-07-04T00:25:47;16.70;42.40
59975;DHT22;45827;-36.632;-64.318;2022-07-04T00:28:14;16.60;42.40
59975;DHT22;45827;-36.632;-64.318;2022-07-04T00:30:41;16.60;42.40
59975;DHT22;45827;-36.632;-64.318;2022-07-04T00:33:12;16.60;42.40
59975;DHT22;45827;-36.632;-64.318;2022-07-04T00:35:40;16.60;42.40
59975;DHT22;45827;-36.632;-64.318;2022-07-04T00:38:07;16.60;42.40
59975;DHT22;45827;-36.632;-64.318;2022-07-04T00:40:34;16.60;42.40
59975;DHT22;45827;-36.632;-64.318;2022-07-04T00:43:03;16.60;42.40
59975;DHT22;45827;-36.632;-64.318;2022-07-04T00:45:30;16.60;42.50
59975;DHT22;45827;-36.632;-64.318;2022-07-04T00:47:57;16.60;42.40
59975;DHT22;45827;-36.632;-64.318;2022-07-04T00:50:25;16.60;42.40
59975;DHT22;45827;-36.632;-64.318;2022-07-04T00:52:53;16.60;42.50
59975;DHT22;45827;-36.632;-64.318;2022-07-04T00:55:22;16.60;42.50
59975;DHT22;45827;-36.632;-64.318;2022-07-04T00:57:50;16.60;42.40
59975;DHT22;45827;-36.632;-64.318;2022-07-04T01:00:18;16.60;42.40
59975;DHT22;45827;-36.632;-64.318;2022-07-04T01:02:46;16.60;42.50
59975;DHT22;45827;-36.632;-64.318;2022-07-04T01:05:16;16.50;42.50
59975;DHT22;45827;-36.632;-64.318;2022-07-04T01:07:45;16.50;42.40
59975;DHT22;45827;-36.632;-64.318;2022-07-04T01:10:16;16.60;42.50
59975;DHT22;45827;-36.632;-64.318;2022-07-04T01:12:43;16.50;42.50
59975;DHT22;45827;-36.632;-64.318;2022-07-04T01:15:10;16.50;42.60
59975;DHT22;45827;-36.632;-64.318;2022-07-04T01:17:40;16.50;42.50
59975;DHT22;45827;-36.632;-64.318;2022-07-04T01:20:17;16.50;42.50
59975;DHT22;45827;-36.632;-64.318;2022-07-04T01:22:44;16.50;42.50
59975;DHT22;45827;-36.632;-64.318;2022-07-04T01:25:11;16.50;42.60
59975;DHT22;45827;-36.632;-64.318;2022-07-04T01:27:40;16.50;42.60
59975;DHT22;45827;-36.632;-64.318;2022-07-04T01:30:08;16.50;42.60
59975;DHT22;45827;-36.632;-64.318;2022-07-04T01:32:38;16.50;42.70
59975;DHT22;45827;-36.632;-64.318;2022-07-04T01:35:06;16.50;43.10
59975;DHT22;45827;-36.632;-64.318;2022-07-04T01:37:33;16.50;42.70
59975;DHT22;45827;-36.632;-64.318;2022-07-04T01:40:00;16.50;42.70
59975;DHT22;45827;-36.632;-64.318;2022-07-04T01:42:27;16.50;42.70
59975;DHT22;45827;-36.632;-64.318;2022-07-04T01:44:54;16.50;42.70
59975;DHT22;45827;-36.632;-64.318;2022-07-04T01:47:21;16.50;42.70
59975;DHT22;45827;-36.632;-64.318;2022-07-04T01:49:51;16.50;42.80
59975;DHT22;45827;-36.632;-64.318;2022-07-04T01:52:18;16.50;42.80
59975;DHT22;45827;-36.632;-64.318;2022-07-04T01:54:45;16.40;42.70
59975;DHT22;45827;-36.632;-64.318;2022-07-04T01:57:12;16.50;42.80
59975;DHT22;45827;-36.632;-64.318;2022-07-04T01:59:39;16.40;42.80
59975;DHT22;45827;-36.632;-64.318;2022-07-04T02:02:25;16.40;42.80
59975;DHT22;45827;-36.632;-64.318;2022-07-04T02:04:52;16.40;42.90
59975;DHT22;45827;-36.632;-64.318;2022-07-04T02:07:19;16.40;42.90
59975;DHT22;45827;-36.632;-64.318;2022-07-04T02:09:46;16.40;42.90
59975;DHT22;45827;-36.632;-64.318;2022-07-04T02:12:13;16.40;42.90
59975;DHT22;45827;-36.632;-64.318;2022-07-04T02:14:58;16.30;43.00
59975;DHT22;45827;-36.632;-64.318;2022-07-04T02:17:25;16.40;43.00
59975;DHT22;45827;-36.632;-64.318;2022-07-04T02:19:53;16.40;43.10
59975;DHT22;45827;-36.632;-64.318;2022-07-04T02:22:20;16.40;43.10
59975;DHT22;45827;-36.632;-64.318;2022-07-04T02:24:47;16.40;43.10
59975;DHT22;45827;-36.632;-64.318;2022-07-04T02:27:14;16.40;43.10
59975;DHT22;45827;-36.632;-64.318;2022-07-04T02:29:41;16.30;43.10
59975;DHT22;45827;-36.632;-64.318;2022-07-04T02:32:09;16.40;43.20
59975;DHT22;45827;-36.632;-64.318;2022-07-04T02:34:36;16.30;43.20
59975;DHT22;45827;-36.632;-64.318;2022-07-04T02:37:03;16.30;43.10
59975;DHT22;45827;-36.632;-64.318;2022-07-04T02:39:31;16.30;43.20
59975;DHT22;45827;-36.632;-64.318;2022-07-04T02:41:58;16.30;43.20
59975;DHT22;45827;-36.632;-64.318;2022-07-04T02:44:27;16.30;43.30
59975;DHT22;45827;-36.632;-64.318;2022-07-04T02:46:54;16.30;43.30
59975;DHT22;45827;-36.632;-64.318;2022-07-04T02:49:22;16.30;43.30
59975;DHT22;45827;-36.632;-64.318;2022-07-04T02:51:49;16.30;43.40
59975;DHT22;45827;-36.632;-64.318;2022-07-04T02:54:16;16.30;43.40
59975;DHT22;45827;-36.632;-64.318;2022-07-04T02:56:43;16.30;43.40
59975;DHT22;45827;-36.632;-64.318;2022-07-04T02:59:10;16.30;43.40
59975;DHT22;45827;-36.632;-64.318;2022-07-04T03:01:37;16.30;43.40
59975;DHT22;45827;-36.632;-64.318;2022-07-04T03:04:04;16.30;43.40
59975;DHT22;45827;-36.632;-64.318;2022-07-04T03:06:31;16.30;43.50
59975;DHT22;45827;-36.632;-64.318;2022-07-04T03:08:58;16.20;43.40
59975;DHT22;45827;-36.632;-64.318;2022-07-04T03:11:25;16.30;43.60
59975;DHT22;45827;-36.632;-64.318;2022-07-04T03:13:52;16.20;43.60
59975;DHT22;45827;-36.632;-64.318;2022-07-04T03:16:19;16.20;43.50
59975;DHT22;45827;-36.632;-64.318;2022-07-04T03:18:47;16.20;43.60
59975;DHT22;45827;-36.632;-64.318;2022-07-04T03:21:14;16.20;43.60
59975;DHT22;45827;-36.632;-64.318;2022-07-04T03:23:41;16.20;43.60
59975;DHT22;45827;-36.632;-64.318;2022-07-04T03:26:08;16.20;43.60
59975;DHT22;45827;-36.632;-64.318;2022-07-04T03:28:35;16.20;43.60
59975;DHT22;45827;-36.632;-64.318;2022-07-04T03:31:02;16.20;43.70
59975;DHT22;45827;-36.632;-64.318;2022-07-04T03:33:29;16.10;43.70
59975;DHT22;45827;-36.632;-64.318;2022-07-04T03:35:56;16.20;43.70
59975;DHT22;45827;-36.632;-64.318;2022-07-04T03:38:23;16.20;43.70
59975;DHT22;45827;-36.632;-64.318;2022-07-04T03:40:50;16.20;43.80
59975;DHT22;45827;-36.632;-64.318;2022-07-04T03:43:17;16.10;43.80
59975;DHT22;45827;-36.632;-64.318;2022-07-04T03:45:44;16.10;43.80
59975;DHT22;45827;-36.632;-64.318;2022-07-04T03:48:11;16.10;43.80
59975;DHT22;45827;-36.632;-64.318;2022-07-04T03:50:38;16.10;43.80
59975;DHT22;45827;-36.632;-64.318;2022-07-04T03:53:05;16.10;43.80
59975;DHT22;45827;-36.632;-64.318;2022-07-04T03:55:32;16.10;43.80
59975;DHT22;45827;-36.632;-64.318;2022-07-04T03:57:59;16.10;43.90
59975;DHT22;45827;-36.632;-64.318;2022-07-04T04:00:27;16.10;43.90
59975;DHT22;45827;-36.632;-64.318;2022-07-04T04:02:54;16.10;44.00
59975;DHT22;45827;-36.632;-64.318;2022-07-04T04:05:21;16.10;44.00
59975;DHT22;45827;-36.632;-64.318;2022-07-04T04:07:55;16.10;43.90
59975;DHT22;45827;-36.632;-64.318;2022-07-04T04:10:23;16.00;44.00
59975;DHT22;45827;-36.632;-64.318;2022-07-04T04:12:51;16.10;44.00
59975;DHT22;45827;-36.632;-64.318;2022-07-04T04:15:18;16.10;44.00
59975;DHT22;45827;-36.632;-64.318;2022-07-04T04:17:45;16.10;44.00
59975;DHT22;45827;-36.632;-64.318;2022-07-04T04:20:12;16.00;44.00
59975;DHT22;45827;-36.632;-64.318;2022-07-04T04:22:39;16.00;44.00
59975;DHT22;45827;-36.632;-64.318;2022-07-04T04:25:07;16.00;44.00
59975;DHT22;45827;-36.632;-64.318;2022-07-04T04:27:34;16.00;44.00
59975;DHT22;45827;-36.632;-64.318;2022-07-04T04:30:01;16.00;44.10
59975;DHT22;45827;-36.632;-64.318;2022-07-04T04:32:28;16.00;44.10
59975;DHT22;45827;-36.632;-64.318;2022-07-04T04:34:56;16.00;44.50
59975;DHT22;45827;-36.632;-64.318;2022-07-04T04:37:24;16.00;44.60
59975;DHT22;45827;-36.632;-64.318;2022-07-04T04:39:51;16.00;44.10
59975;DHT22;45827;-36.632;-64.318;2022-07-04T04:42:18;16.00;44.20
59975;DHT22;45827;-36.632;-64.318;2022-07-04T04:44:45;16.00;44.20
59975;DHT22;45827;-36.632;-64.318;2022-07-04T04:47:12;15.90;44.10
59975;DHT22;45827;-36.632;-64.318;2022-07-04T04:49:39;16.00;44.30
59975;DHT22;45827;-36.632;-64.318;2022-07-04T04:52:06;15.90;44.30
59975;DHT22;45827;-36.632;-64.318;2022-07-04T04:54:33;15.90;44.30
59975;DHT22;45827;-36.632;-64.318;2022-07-04T04:57:01;15.90;44.40
59975;DHT22;45827;-36.632;-64.318;2022-07-04T04:59:29;15.90;44.40
59975;DHT22;45827;-36.632;-64.318;2022-07-04T05:01:59;15.90;44.30
59975;DHT22;45827;-36.632;-64.318;2022-07-04T05:04:26;15.90;44.30
59975;DHT22;45827;-36.632;-64.318;2022-07-04T05:06:53;15.90;44.40
59975;DHT22;45827;-36.632;-64.318;2022-07-04T05:09:21;15.80;44.40
59975;DHT22;45827;-36.632;-64.318;2022-07-04T05:11:48;15.80;44.40
59975;DHT22;45827;-36.632;-64.318;2022-07-04T05:14:15;15.80;44.50
59975;DHT22;45827;-36.632;-64.318;2022-07-04T05:16:43;15.80;44.50
59975;DHT22;45827;-36.632;-64.318;2022-07-04T05:19:10;15.80;44.50
59975;DHT22;45827;-36.632;-64.318;2022-07-04T05:21:37;15.80;44.60
59975;DHT22;45827;-36.632;-64.318;2022-07-04T05:24:04;15.80;44.60
59975;DHT22;45827;-36.632;-64.318;2022-07-04T05:26:31;15.80;44.60
59975;DHT22;45827;-36.632;-64.318;2022-07-04T05:28:59;15.80;44.70
59975;DHT22;45827;-36.632;-64.318;2022-07-04T05:31:26;15.80;44.90
59975;DHT22;45827;-36.632;-64.318;2022-07-04T05:33:53;15.80;44.70
59975;DHT22;45827;-36.632;-64.318;2022-07-04T05:36:21;15.80;44.70
59975;DHT22;45827;-36.632;-64.318;2022-07-04T05:38:50;15.80;44.80
59975;DHT22;45827;-36.632;-64.318;2022-07-04T05:41:17;15.70;44.80
59975;DHT22;45827;-36.632;-64.318;2022-07-04T05:43:44;15.70;44.80
59975;DHT22;45827;-36.632;-64.318;2022-07-04T05:46:11;15.80;44.90
59975;DHT22;45827;-36.632;-64.318;2022-07-04T05:48:38;15.70;44.90
59975;DHT22;45827;-36.632;-64.318;2022-07-04T05:51:05;15.70;45.00
59975;DHT22;45827;-36.632;-64.318;2022-07-04T05:53:33;15.70;44.90
59975;DHT22;45827;-36.632;-64.318;2022-07-04T05:56:00;15.70;45.10
59975;DHT22;45827;-36.632;-64.318;2022-07-04T05:58:27;15.70;45.00
59975;DHT22;45827;-36.632;-64.318;2022-07-04T06:00:54;15.70;45.10
59975;DHT22;45827;-36.632;-64.318;2022-07-04T06:03:21;15.70;45.10
59975;DHT22;45827;-36.632;-64.318;2022-07-04T06:05:48;15.70;45.10
59975;DHT22;45827;-36.632;-64.318;2022-07-04T06:08:16;15.70;45.10
59975;DHT22;45827;-36.632;-64.318;2022-07-04T06:10:43;15.70;45.20
59975;DHT22;45827;-36.632;-64.318;2022-07-04T06:13:10;15.70;45.20
59975;DHT22;45827;-36.632;-64.318;2022-07-04T06:15:37;15.70;45.20
59975;DHT22;45827;-36.632;-64.318;2022-07-04T06:18:05;15.70;45.30
59975;DHT22;45827;-36.632;-64.318;2022-07-04T06:20:32;15.70;45.40
59975;DHT22;45827;-36.632;-64.318;2022-07-04T06:22:59;15.70;45.40
59975;DHT22;45827;-36.632;-64.318;2022-07-04T06:25:26;15.70;45.30
59975;DHT22;45827;-36.632;-64.318;2022-07-04T06:27:53;15.60;45.30
59975;DHT22;45827;-36.632;-64.318;2022-07-04T06:30:20;15.60;45.30
59975;DHT22;45827;-36.632;-64.318;2022-07-04T06:32:50;15.60;45.30
59975;DHT22;45827;-36.632;-64.318;2022-07-04T06:35:30;15.60;45.40
59975;DHT22;45827;-36.632;-64.318;2022-07-04T06:38:22;15.60;45.40
59975;DHT22;45827;-36.632;-64.318;2022-07-04T06:40:50;15.70;45.40
59975;DHT22;45827;-36.632;-64.318;2022-07-04T06:43:17;15.60;45.30
59975;DHT22;45827;-36.632;-64.318;2022-07-04T06:45:44;15.60;45.30
59975;DHT22;45827;-36.632;-64.318;2022-07-04T06:48:11;15.60;45.30
59975;DHT22;45827;-36.632;-64.318;2022-07-04T06:50:38;15.60;45.30
59975;DHT22;45827;-36.632;-64.318;2022-07-04T06:53:07;15.60;45.30
59975;DHT22;45827;-36.632;-64.318;2022-07-04T06:55:36;15.60;45.30
59975;DHT22;45827;-36.632;-64.318;2022-07-04T06:58:03;15.60;45.40
59975;DHT22;45827;-36.632;-64.318;2022-07-04T07:00:30;15.60;45.30
59975;DHT22;45827;-36.632;-64.318;2022-07-04T07:02:58;15.60;45.40
59975;DHT22;45827;-36.632;-64.318;2022-07-04T07:05:26;15.50;45.30
59975;DHT22;45827;-36.632;-64.318;2022-07-04T07:07:54;15.50;45.30
59975;DHT22;45827;-36.632;-64.318;2022-07-04T07:10:21;15.50;45.30
59975;DHT22;45827;-36.632;-64.318;2022-07-04T07:12:48;15.50;45.30
59975;DHT22;45827;-36.632;-64.318;2022-07-04T07:15:18;15.50;45.40
59975;DHT22;45827;-36.632;-64.318;2022-07-04T07:17:46;15.50;45.40
59975;DHT22;45827;-36.632;-64.318;2022-07-04T07:20:13;15.50;45.40
59975;DHT22;45827;-36.632;-64.318;2022-07-04T07:22:41;15.40;45.30
59975;DHT22;45827;-36.632;-64.318;2022-07-04T07:25:10;15.50;45.50
59975;DHT22;45827;-36.632;-64.318;2022-07-04T07:27:38;15.50;45.50
59975;DHT22;45827;-36.632;-64.318;2022-07-04T07:30:07;15.40;45.50
59975;DHT22;45827;-36.632;-64.318;2022-07-04T07:32:34;15.40;45.50
59975;DHT22;45827;-36.632;-64.318;2022-07-04T07:35:02;15.40;45.50
59975;DHT22;45827;-36.632;-64.318;2022-07-04T07:37:29;15.40;45.50
59975;DHT22;45827;-36.632;-64.318;2022-07-04T07:39:56;15.40;45.70
59975;DHT22;45827;-36.632;-64.318;2022-07-04T07:42:26;15.40;45.70
59975;DHT22;45827;-36.632;-64.318;2022-07-04T07:44:53;15.40;45.70
59975;DHT22;45827;-36.632;-64.318;2022-07-04T07:47:20;15.40;45.70
59975;DHT22;45827;-36.632;-64.318;2022-07-04T07:49:47;15.30;45.80
59975;DHT22;45827;-36.632;-64.318;2022-07-04T07:52:14;15.30;46.20
59975;DHT22;45827;-36.632;-64.318;2022-07-04T07:54:42;15.30;45.80
59975;DHT22;45827;-36.632;-64.318;2022-07-04T07:57:09;15.30;45.80
59975;DHT22;45827;-36.632;-64.318;2022-07-04T07:59:36;15.30;45.80
59975;DHT22;45827;-36.632;-64.318;2022-07-04T08:02:04;15.20;45.70
59975;DHT22;45827;-36.632;-64.318;2022-07-04T08:04:31;15.30;45.90
59975;DHT22;45827;-36.632;-64.318;2022-07-04T08:07:10;15.30;45.90
59975;DHT22;45827;-36.632;-64.318;2022-07-04T08:09:40;15.30;45.90
59975;DHT22;45827;-36.632;-64.318;2022-07-04T08:12:08;15.20;45.90
59975;DHT22;45827;-36.632;-64.318;2022-07-04T08:14:35;15.20;45.90
59975;DHT22;45827;-36.632;-64.318;2022-07-04T08:17:03;15.20;45.90
59975;DHT22;45827;-36.632;-64.318;2022-07-04T08:19:32;15.20;45.90
59975;DHT22;45827;-36.632;-64.318;2022-07-04T08:21:59;15.10;45.90
59975;DHT22;45827;-36.632;-64.318;2022-07-04T08:24:26;15.20;45.90
59975;DHT22;45827;-36.632;-64.318;2022-07-04T08:26:53;15.10;46.40
59975;DHT22;45827;-36.632;-64.318;2022-07-04T08:29:21;15.10;45.90
59975;DHT22;45827;-36.632;-64.318;2022-07-04T08:31:48;15.10;46.00
59975;DHT22;45827;-36.632;-64.318;2022-07-04T08:34:16;15.10;46.00
59975;DHT22;45827;-36.632;-64.318;2022-07-04T08:36:43;15.10;46.00
59975;DHT22;45827;-36.632;-64.318;2022-07-04T08:39:10;15.10;46.00
59975;DHT22;45827;-36.632;-64.318;2022-07-04T08:41:39;15.10;46.00
59975;DHT22;45827;-36.632;-64.318;2022-07-04T08:44:07;15.00;46.00
59975;DHT22;45827;-36.632;-64.318;2022-07-04T08:46:40;15.00;46.00
59975;DHT22;45827;-36.632;-64.318;2022-07-04T08:49:15;15.00;46.00
59975;DHT22;45827;-36.632;-64.318;2022-07-04T08:52:00;15.00;46.00
59975;DHT22;45827;-36.632;-64.318;2022-07-04T08:54:30;15.00;46.00
59975;DHT22;45827;-36.632;-64.318;2022-07-04T08:57:16;14.90;46.00
59975;DHT22;45827;-36.632;-64.318;2022-07-04T09:00:05;14.90;46.00
59975;DHT22;45827;-36.632;-64.318;2022-07-04T09:02:34;14.90;46.00
59975;DHT22;45827;-36.632;-64.318;2022-07-04T09:05:05;14.90;46.00
59975;DHT22;45827;-36.632;-64.318;2022-07-04T09:07:34;14.90;46.00
59975;DHT22;45827;-36.632;-64.318;2022-07-04T09:10:03;14.90;46.00
59975;DHT22;45827;-36.632;-64.318;2022-07-04T09:12:30;14.80;45.90
59975;DHT22;45827;-36.632;-64.318;2022-07-04T09:14:57;14.80;46.00
59975;DHT22;45827;-36.632;-64.318;2022-07-04T09:17:25;14.80;46.00
59975;DHT22;45827;-36.632;-64.318;2022-07-04T09:20:17;14.80;46.00
59975;DHT22;45827;-36.632;-64.318;2022-07-04T09:22:45;14.80;46.00
59975;DHT22;45827;-36.632;-64.318;2022-07-04T09:25:13;14.80;45.90
59975;DHT22;45827;-36.632;-64.318;2022-07-04T09:27:43;14.70;45.90
59975;DHT22;45827;-36.632;-64.318;2022-07-04T09:30:12;14.80;46.00
59975;DHT22;45827;-36.632;-64.318;2022-07-04T09:32:42;14.80;45.90
59975;DHT22;45827;-36.632;-64.318;2022-07-04T09:35:12;14.80;45.60
59975;DHT22;45827;-36.632;-64.318;2022-07-04T09:37:41;14.70;45.90
59975;DHT22;45827;-36.632;-64.318;2022-07-04T09:40:10;14.70;45.90
59975;DHT22;45827;-36.632;-64.318;2022-07-04T09:42:39;14.70;45.90
59975;DHT22;45827;-36.632;-64.318;2022-07-04T09:45:10;14.70;45.90
59975;DHT22;45827;-36.632;-64.318;2022-07-04T09:47:39;14.70;45.90
59975;DHT22;45827;-36.632;-64.318;2022-07-04T09:50:13;14.70;45.90
59975;DHT22;45827;-36.632;-64.318;2022-07-04T09:52:55;14.70;46.00
59975;DHT22;45827;-36.632;-64.318;2022-07-04T09:58:05;14.60;45.90
59975;DHT22;45827;-36.632;-64.318;2022-07-04T10:03:24;14.60;45.80
59975;DHT22;45827;-36.632;-64.318;2022-07-04T10:06:12;14.60;45.90
59975;DHT22;45827;-36.632;-64.318;2022-07-04T10:08:43;14.60;45.90
59975;DHT22;45827;-36.632;-64.318;2022-07-04T10:11:11;14.60;45.80
59975;DHT22;45827;-36.632;-64.318;2022-07-04T10:13:39;14.60;45.90
59975;DHT22;45827;-36.632;-64.318;2022-07-04T10:16:06;14.60;45.90
59975;DHT22;45827;-36.632;-64.318;2022-07-04T10:18:37;14.60;45.90
59975;DHT22;45827;-36.632;-64.318;2022-07-04T10:21:04;14.60;45.90
59975;DHT22;45827;-36.632;-64.318;2022-07-04T10:23:31;14.60;45.90
59975;DHT22;45827;-36.632;-64.318;2022-07-04T10:26:00;14.60;45.80
59975;DHT22;45827;-36.632;-64.318;2022-07-04T10:28:28;14.60;45.80
59975;DHT22;45827;-36.632;-64.318;2022-07-04T10:30:57;14.60;45.80
59975;DHT22;45827;-36.632;-64.318;2022-07-04T10:33:27;14.60;45.80
59975;DHT22;45827;-36.632;-64.318;2022-07-04T10:36:06;14.50;45.80
59975;DHT22;45827;-36.632;-64.318;2022-07-04T10:38:51;14.50;45.80
59975;DHT22;45827;-36.632;-64.318;2022-07-04T10:41:20;14.50;45.90
59975;DHT22;45827;-36.632;-64.318;2022-07-04T10:46:25;14.50;45.90
59975;DHT22;45827;-36.632;-64.318;2022-07-04T10:51:41;14.50;45.80
59975;DHT22;45827;-36.632;-64.318;2022-07-04T10:56:38;14.50;45.90
59975;DHT22;45827;-36.632;-64.318;2022-07-04T10:59:17;14.50;45.50
59975;DHT22;45827;-36.632;-64.318;2022-07-04T11:02:30;14.90;44.90
59975;DHT22;45827;-36.632;-64.318;2022-07-04T11:04:59;15.60;43.50
59975;DHT22;45827;-36.632;-64.318;2022-07-04T11:13:06;17.50;39.70
59975;DHT22;45827;-36.632;-64.318;2022-07-04T11:18:11;18.50;38.10
59975;DHT22;45827;-36.632;-64.318;2022-07-04T11:20:44;18.90;37.60
59975;DHT22;45827;-36.632;-64.318;2022-07-04T11:23:19;19.20;37.00
59975;DHT22;45827;-36.632;-64.318;2022-07-04T11:25:48;19.50;36.50
59975;DHT22;45827;-36.632;-64.318;2022-07-04T11:30:54;20.00;35.60
59975;DHT22;45827;-36.632;-64.318;2022-07-04T11:33:26;20.20;35.30
59975;DHT22;45827;-36.632;-64.318;2022-07-04T11:41:41;20.60;34.70
59975;DHT22;45827;-36.632;-64.318;2022-07-04T11:44:27;20.90;34.50
59975;DHT22;45827;-36.632;-64.318;2022-07-04T11:47:23;21.00;34.30
59975;DHT22;45827;-36.632;-64.318;2022-07-04T11:52:25;21.20;34.30
59975;DHT22;45827;-36.632;-64.318;2022-07-04T11:54:55;21.30;34.50
59975;DHT22;45827;-36.632;-64.318;2022-07-04T11:57:33;21.40;34.60
59975;DHT22;45827;-36.632;-64.318;2022-07-04T12:02:32;21.70;34.70
59975;DHT22;45827;-36.632;-64.318;2022-07-04T12:05:00;21.80;34.60
59975;DHT22;45827;-36.632;-64.318;2022-07-04T12:07:31;21.90;34.70
59975;DHT22;45827;-36.632;-64.318;2022-07-04T12:10:18;21.90;34.70
59975;DHT22;45827;-36.632;-64.318;2022-07-04T12:13:14;22.10;34.70
59975;DHT22;45827;-36.632;-64.318;2022-07-04T12:15:45;22.20;34.70
59975;DHT22;45827;-36.632;-64.318;2022-07-04T12:18:23;22.30;34.70
59975;DHT22;45827;-36.632;-64.318;2022-07-04T12:20:52;22.40;35.00
59975;DHT22;45827;-36.632;-64.318;2022-07-04T12:23:23;22.50;35.10
59975;DHT22;45827;-36.632;-64.318;2022-07-04T12:25:55;22.60;34.90
59975;DHT22;45827;-36.632;-64.318;2022-07-04T12:28:22;22.70;35.20
59975;DHT22;45827;-36.632;-64.318;2022-07-04T12:33:21;22.90;35.20
59975;DHT22;45827;-36.632;-64.318;2022-07-04T12:35:55;23.10;35.20
59975;DHT22;45827;-36.632;-64.318;2022-07-04T12:41:04;23.30;35.10
59975;DHT22;45827;-36.632;-64.318;2022-07-04T12:46:10;23.70;35.00
59975;DHT22;45827;-36.632;-64.318;2022-07-04T12:48:38;23.80;35.00
59975;DHT22;45827;-36.632;-64.318;2022-07-04T12:51:20;23.40;35.60
59975;DHT22;45827;-36.632;-64.318;2022-07-04T12:53:49;23.00;35.90
59975;DHT22;45827;-36.632;-64.318;2022-07-04T12:56:40;22.60;36.70
59975;DHT22;45827;-36.632;-64.318;2022-07-04T12:59:10;22.20;38.20
59975;DHT22;45827;-36.632;-64.318;2022-07-04T13:01:42;22.30;38.50
59975;DHT22;45827;-36.632;-64.318;2022-07-04T13:04:10;22.50;38.50
59975;DHT22;45827;-36.632;-64.318;2022-07-04T13:06:37;22.70;38.40
59975;DHT22;45827;-36.632;-64.318;2022-07-04T13:09:06;23.00;38.40
59975;DHT22;45827;-36.632;-64.318;2022-07-04T13:11:36;23.30;38.30
59975;DHT22;45827;-36.632;-64.318;2022-07-04T13:14:32;23.50;38.10
59975;DHT22;45827;-36.632;-64.318;2022-07-04T13:17:00;23.80;38.00
59975;DHT22;45827;-36.632;-64.318;2022-07-04T13:19:27;23.50;38.20
59975;DHT22;45827;-36.632;-64.318;2022-07-04T13:21:54;23.20;38.50
59975;DHT22;45827;-36.632;-64.318;2022-07-04T13:24:21;22.80;39.00
59975;DHT22;45827;-36.632;-64.318;2022-07-04T13:26:48;22.40;39.60
59975;DHT22;45827;-36.632;-64.318;2022-07-04T13:29:15;22.20;41.50
59975;DHT22;45827;-36.632;-64.318;2022-07-04T13:31:42;22.30;42.00
59975;DHT22;45827;-36.632;-64.318;2022-07-04T13:34:09;22.60;42.40
59975;DHT22;45827;-36.632;-64.318;2022-07-04T13:36:37;22.80;41.80
59975;DHT22;45827;-36.632;-64.318;2022-07-04T13:39:04;23.10;41.60
59975;DHT22;45827;-36.632;-64.318;2022-07-04T13:41:35;23.40;41.30
59975;DHT22;45827;-36.632;-64.318;2022-07-04T13:44:03;23.70;41.00
59975;DHT22;45827;-36.632;-64.318;2022-07-04T13:46:31;23.70;40.90
59975;DHT22;45827;-36.632;-64.318;2022-07-04T13:49:07;23.40;41.10
59975;DHT22;45827;-36.632;-64.318;2022-07-04T13:51:35;23.00;41.70
59975;DHT22;45827;-36.632;-64.318;2022-07-04T13:54:03;22.60;42.20
59975;DHT22;45827;-36.632;-64.318;2022-07-04T13:56:31;22.30;44.30
59975;DHT22;45827;-36.632;-64.318;2022-07-04T13:59:00;22.20;44.80
59975;DHT22;45827;-36.632;-64.318;2022-07-04T14:01:28;22.60;44.70
59975;DHT22;45827;-36.632;-64.318;2022-07-04T14:03:55;22.90;44.50
59975;DHT22;45827;-36.632;-64.318;2022-07-04T14:06:22;23.30;44.10
59975;DHT22;45827;-36.632;-64.318;2022-07-04T14:08:49;23.50;43.70
59975;DHT22;45827;-36.632;-64.318;2022-07-04T14:11:16;23.60;43.20
59975;DHT22;45827;-36.632;-64.318;2022-07-04T14:13:43;23.40;43.40
59975;DHT22;45827;-36.632;-64.318;2022-07-04T14:16:10;23.10;43.90
59975;DHT22;45827;-36.632;-64.318;2022-07-04T14:18:38;22.80;44.40
59975;DHT22;45827;-36.632;-64.318;2022-07-04T14:21:05;22.40;45.10
59975;DHT22;45827;-36.632;-64.318;2022-07-04T14:23:33;22.10;47.40
59975;DHT22;45827;-36.632;-64.318;2022-07-04T14:26:08;22.20;47.70
59975;DHT22;45827;-36.632;-64.318;2022-07-04T14:28:37;22.50;47.30
59975;DHT22;45827;-36.632;-64.318;2022-07-04T14:31:04;22.90;46.70
59975;DHT22;45827;-36.632;-64.318;2022-07-04T14:33:32;23.30;45.90
59975;DHT22;45827;-36.632;-64.318;2022-07-04T14:36:01;23.70;45.20
59975;DHT22;45827;-36.632;-64.318;2022-07-04T14:38:29;23.50;44.90
59975;DHT22;45827;-36.632;-64.318;2022-07-04T14:40:56;23.40;45.50
59975;DHT22;45827;-36.632;-64.318;2022-07-04T14:43:42;23.10;46.20
59975;DHT22;45827;-36.632;-64.318;2022-07-04T14:46:09;22.70;46.80
59975;DHT22;45827;-36.632;-64.318;2022-07-04T14:48:37;22.40;47.50
59975;DHT22;45827;-36.632;-64.318;2022-07-04T14:51:05;22.10;48.50
59975;DHT22;45827;-36.632;-64.318;2022-07-04T14:53:33;22.10;49.00
59975;DHT22;45827;-36.632;-64.318;2022-07-04T14:56:00;22.30;48.50
59975;DHT22;45827;-36.632;-64.318;2022-07-04T14:58:27;22.70;47.60
59975;DHT22;45827;-36.632;-64.318;2022-07-04T15:00:55;23.20;46.60
59975;DHT22;45827;-36.632;-64.318;2022-07-04T15:03:23;23.50;45.70
59975;DHT22;45827;-36.632;-64.318;2022-07-04T15:05:50;23.40;45.90
59975;DHT22;45827;-36.632;-64.318;2022-07-04T15:08:17;23.20;46.30
59975;DHT22;45827;-36.632;-64.318;2022-07-04T15:10:45;22.90;46.80
59975;DHT22;45827;-36.632;-64.318;2022-07-04T15:13:12;22.60;47.40
59975;DHT22;45827;-36.632;-64.318;2022-07-04T15:15:40;22.30;47.90
59975;DHT22;45827;-36.632;-64.318;2022-07-04T15:18:07;22.10;50.20
59975;DHT22;45827;-36.632;-64.318;2022-07-04T15:20:34;21.90;50.10
59975;DHT22;45827;-36.632;-64.318;2022-07-04T15:23:19;22.10;49.70
59975;DHT22;45827;-36.632;-64.318;2022-07-04T15:26:05;22.70;48.80
59975;DHT22;45827;-36.632;-64.318;2022-07-04T15:28:32;23.20;47.60
59975;DHT22;45827;-36.632;-64.318;2022-07-04T15:30:59;23.40;47.10
59975;DHT22;45827;-36.632;-64.318;2022-07-04T15:33:27;23.30;47.70
59975;DHT22;45827;-36.632;-64.318;2022-07-04T15:35:57;23.00;48.20
59975;DHT22;45827;-36.632;-64.318;2022-07-04T15:38:24;22.80;48.90
59975;DHT22;45827;-36.632;-64.318;2022-07-04T15:40:52;22.60;49.40
59975;DHT22;45827;-36.632;-64.318;2022-07-04T15:43:19;22.30;52.10